sensor_id;sensor_type;location;lat;lon;timestamp;P1;durP1;ratioP1;P2;durP2;ratioP2
32748;SDS011;19119;52.474;13.710;2023-06-26T00:02:12;13.00;;;9.65;;
32748;SDS011;19119;52.474;13.710;2023-06-26T00:04:38;13.35;;;9.60;;
32748;SDS011;19119;52.474;13.710;2023-06-26T00:07:03;11.48;;;8.93;;
32748;SDS011;19119;52.474;13.710;2023-06-26T00:09:30;12.25;;;9.80;;
32748;SDS011;19119;52.474;13.710;2023-06-26T00:11:55;12.40;;;9.50;;
32748;SDS011;19119;52.474;13.710;2023-06-26T00:14:22;14.50;;;9.02;;
32748;SDS011;19119;52.474;13.710;2023-06-26T00:16:47;15.63;;;9.35;;
32748;SDS011;19119;52.474;13.710;2023-06-26T00:19:16;13.30;;;8.43;;
32748;SDS011;19119;52.474;13.710;2023-06-26T00:21:41;11.82;;;8.75;;
32748;SDS011;19119;52.474;13.710;2023-06-26T00:24:13;10.52;;;8.90;;
32748;SDS011;19119;52.474;13.710;2023-06-26T00:26:39;10.82;;;8.15;;
32748;SDS011;19119;52.474;13.710;2023-06-26T00:29:04;12.63;;;8.68;;
32748;SDS011;19119;52.474;13.710;2023-06-26T00:31:30;12.55;;;9.02;;
32748;SDS011;19119;52.474;13.710;2023-06-26T00:33:57;12.10;;;8.88;;
32748;SDS011;19119;52.474;13.710;2023-06-26T00:36:22;11.80;;;8.90;;
32748;SDS011;19119;52.474;13.710;2023-06-26T00:38:49;9.80;;;8.10;;
32748;SDS011;19119;52.474;13.710;2023-06-26T00:41:15;12.27;;;8.63;;
32748;SDS011;19119;52.474;13.710;2023-06-26T00:43:40;12.07;;;7.93;;
32748;SDS011;19119;52.474;13.710;2023-06-26T00:46:08;14.13;;;9.10;;
32748;SDS011;19119;52.474;13.710;2023-06-26T00:48:35;10.90;;;8.43;;
32748;SDS011;19119;52.474;13.710;2023-06-26T00:51:01;14.73;;;8.57;;
32748;SDS011;19119;52.474;13.710;2023-06-26T00:53:27;11.57;;;7.97;;
32748;SDS011;19119;52.474;13.710;2023-06-26T00:55:53;11.77;;;8.98;;
32748;SDS011;19119;52.474;13.710;2023-06-26T00:58:19;12.15;;;8.70;;
32748;SDS011;19119;52.474;13.710;2023-06-26T01:00:49;12.85;;;9.13;;
32748;SDS011;19119;52.474;13.710;2023-06-26T01:03:16;17.05;;;10.05;;
32748;SDS011;19119;52.474;13.710;2023-06-26T01:05:42;10.73;;;8.63;;
32748;SDS011;19119;52.474;13.710;2023-06-26T01:08:10;14.45;;;9.23;;
32748;SDS011;19119;52.474;13.710;2023-06-26T01:10:38;14.75;;;9.13;;
32748;SDS011;19119;52.474;13.710;2023-06-26T01:13:04;14.30;;;8.35;;
32748;SDS011;19119;52.474;13.710;2023-06-26T01:15:30;13.63;;;9.63;;
32748;SDS011;19119;52.474;13.710;2023-06-26T01:17:56;11.45;;;9.00;;
32748;SDS011;19119;52.474;13.710;2023-06-26T01:20:24;13.45;;;8.82;;
32748;SDS011;19119;52.474;13.710;2023-06-26T01:28:39;14.20;;;9.73;;
32748;SDS011;19119;52.474;13.710;2023-06-26T01:31:07;16.73;;;10.13;;
32748;SDS011;19119;52.474;13.710;2023-06-26T01:33:33;18.10;;;10.40;;
32748;SDS011;19119;52.474;13.710;2023-06-26T01:35:59;12.60;;;9.25;;
32748;SDS011;19119;52.474;13.710;2023-06-26T01:38:25;12.77;;;9.90;;
32748;SDS011;19119;52.474;13.710;2023-06-26T01:40:51;14.27;;;10.13;;
32748;SDS011;19119;52.474;13.710;2023-06-26T01:45:51;13.63;;;9.82;;
32748;SDS011;19119;52.474;13.710;2023-06-26T01:48:22;13.27;;;9.75;;
32748;SDS011;19119;52.474;13.710;2023-06-26T01:50:51;13.68;;;10.07;;
32748;SDS011;19119;52.474;13.710;2023-06-26T01:53:18;13.55;;;9.60;;
32748;SDS011;19119;52.474;13.710;2023-06-26T01:55:53;12.93;;;9.73;;
32748;SDS011;19119;52.474;13.710;2023-06-26T01:58:24;12.55;;;9.80;;
32748;SDS011;19119;52.474;13.710;2023-06-26T02:00:51;19.85;;;10.50;;
32748;SDS011;19119;52.474;13.710;2023-06-26T02:03:16;11.85;;;9.52;;
32748;SDS011;19119;52.474;13.710;2023-06-26T02:05:42;14.77;;;9.82;;
32748;SDS011;19119;52.474;13.710;2023-06-26T02:08:08;15.45;;;10.20;;
32748;SDS011;19119;52.474;13.710;2023-06-26T02:10:33;16.27;;;10.30;;
32748;SDS011;19119;52.474;13.710;2023-06-26T02:12:59;15.13;;;10.43;;
32748;SDS011;19119;52.474;13.710;2023-06-26T02:15:25;15.93;;;10.90;;
32748;SDS011;19119;52.474;13.710;2023-06-26T02:17:51;13.73;;;10.02;;
32748;SDS011;19119;52.474;13.710;2023-06-26T02:20:16;15.60;;;10.35;;
32748;SDS011;19119;52.474;13.710;2023-06-26T02:22:42;14.50;;;11.18;;
32748;SDS011;19119;52.474;13.710;2023-06-26T02:25:08;14.88;;;10.65;;
32748;SDS011;19119;52.474;13.710;2023-06-26T02:27:34;15.90;;;10.55;;
32748;SDS011;19119;52.474;13.710;2023-06-26T02:29:59;17.15;;;10.32;;
32748;SDS011;19119;52.474;13.710;2023-06-26T02:32:25;13.57;;;9.93;;
32748;SDS011;19119;52.474;13.710;2023-06-26T02:34:50;14.20;;;10.57;;
32748;SDS011;19119;52.474;13.710;2023-06-26T02:37:18;12.02;;;9.35;;
32748;SDS011;19119;52.474;13.710;2023-06-26T02:39:44;12.70;;;9.52;;
32748;SDS011;19119;52.474;13.710;2023-06-26T02:42:10;12.77;;;9.40;;
32748;SDS011;19119;52.474;13.710;2023-06-26T02:44:35;13.15;;;9.25;;
32748;SDS011;19119;52.474;13.710;2023-06-26T02:47:00;12.88;;;9.73;;
32748;SDS011;19119;52.474;13.710;2023-06-26T02:49:26;12.93;;;9.20;;
32748;SDS011;19119;52.474;13.710;2023-06-26T02:51:51;12.45;;;9.82;;
32748;SDS011;19119;52.474;13.710;2023-06-26T02:54:17;12.13;;;9.27;;
32748;SDS011;19119;52.474;13.710;2023-06-26T02:56:42;12.00;;;9.52;;
32748;SDS011;19119;52.474;13.710;2023-06-26T02:59:08;16.85;;;9.82;;
32748;SDS011;19119;52.474;13.710;2023-06-26T03:01:33;12.05;;;9.25;;
32748;SDS011;19119;52.474;13.710;2023-06-26T03:04:00;13.45;;;9.90;;
32748;SDS011;19119;52.474;13.710;2023-06-26T03:06:25;13.13;;;9.68;;
32748;SDS011;19119;52.474;13.710;2023-06-26T03:08:52;14.07;;;10.30;;
32748;SDS011;19119;52.474;13.710;2023-06-26T03:11:18;12.60;;;9.23;;
32748;SDS011;19119;52.474;13.710;2023-06-26T03:13:44;14.30;;;10.88;;
32748;SDS011;19119;52.474;13.710;2023-06-26T03:16:09;15.80;;;10.98;;
32748;SDS011;19119;52.474;13.710;2023-06-26T03:18:35;14.45;;;10.10;;
32748;SDS011;19119;52.474;13.710;2023-06-26T03:21:00;13.95;;;10.07;;
32748;SDS011;19119;52.474;13.710;2023-06-26T03:23:26;17.90;;;10.93;;
32748;SDS011;19119;52.474;13.710;2023-06-26T03:25:51;15.57;;;10.77;;
32748;SDS011;19119;52.474;13.710;2023-06-26T03:28:18;13.63;;;10.23;;
32748;SDS011;19119;52.474;13.710;2023-06-26T03:30:43;15.70;;;10.45;;
32748;SDS011;19119;52.474;13.710;2023-06-26T03:33:09;15.10;;;10.02;;
32748;SDS011;19119;52.474;13.710;2023-06-26T03:35:34;16.95;;;10.88;;
32748;SDS011;19119;52.474;13.710;2023-06-26T03:38:00;14.88;;;9.90;;
32748;SDS011;19119;52.474;13.710;2023-06-26T03:40:26;13.20;;;10.20;;
32748;SDS011;19119;52.474;13.710;2023-06-26T03:42:52;15.85;;;10.75;;
32748;SDS011;19119;52.474;13.710;2023-06-26T03:45:17;13.60;;;10.00;;
32748;SDS011;19119;52.474;13.710;2023-06-26T03:47:44;16.77;;;9.40;;
32748;SDS011;19119;52.474;13.710;2023-06-26T03:50:12;17.48;;;10.93;;
32748;SDS011;19119;52.474;13.710;2023-06-26T03:52:37;13.23;;;10.23;;
32748;SDS011;19119;52.474;13.710;2023-06-26T03:55:03;13.48;;;10.00;;
32748;SDS011;19119;52.474;13.710;2023-06-26T03:57:28;15.32;;;9.98;;
32748;SDS011;19119;52.474;13.710;2023-06-26T03:59:54;16.67;;;11.10;;
32748;SDS011;19119;52.474;13.710;2023-06-26T04:02:19;19.08;;;10.98;;
32748;SDS011;19119;52.474;13.710;2023-06-26T04:04:45;16.33;;;11.85;;
32748;SDS011;19119;52.474;13.710;2023-06-26T04:07:10;17.70;;;12.18;;
32748;SDS011;19119;52.474;13.710;2023-06-26T04:09:36;15.57;;;12.10;;
32748;SDS011;19119;52.474;13.710;2023-06-26T04:12:01;16.42;;;12.13;;
32748;SDS011;19119;52.474;13.710;2023-06-26T04:14:27;19.85;;;11.85;;
32748;SDS011;19119;52.474;13.710;2023-06-26T04:16:53;17.77;;;12.10;;
32748;SDS011;19119;52.474;13.710;2023-06-26T04:19:18;18.60;;;12.25;;
32748;SDS011;19119;52.474;13.710;2023-06-26T04:21:44;16.42;;;12.32;;
32748;SDS011;19119;52.474;13.710;2023-06-26T04:24:10;15.43;;;11.23;;
32748;SDS011;19119;52.474;13.710;2023-06-26T04:26:35;19.55;;;11.30;;
32748;SDS011;19119;52.474;13.710;2023-06-26T04:29:02;14.55;;;10.65;;
32748;SDS011;19119;52.474;13.710;2023-06-26T04:31:28;17.92;;;10.10;;
32748;SDS011;19119;52.474;13.710;2023-06-26T04:33:53;18.10;;;10.48;;
32748;SDS011;19119;52.474;13.710;2023-06-26T04:36:20;15.13;;;11.38;;
32748;SDS011;19119;52.474;13.710;2023-06-26T04:38:45;15.63;;;10.60;;
32748;SDS011;19119;52.474;13.710;2023-06-26T04:41:13;16.00;;;12.20;;
32748;SDS011;19119;52.474;13.710;2023-06-26T04:43:38;16.13;;;11.10;;
32748;SDS011;19119;52.474;13.710;2023-06-26T04:46:04;16.27;;;12.00;;
32748;SDS011;19119;52.474;13.710;2023-06-26T04:48:30;15.77;;;10.57;;
32748;SDS011;19119;52.474;13.710;2023-06-26T04:50:56;14.63;;;11.25;;
32748;SDS011;19119;52.474;13.710;2023-06-26T04:53:22;16.70;;;11.80;;
32748;SDS011;19119;52.474;13.710;2023-06-26T04:55:51;15.93;;;12.48;;
32748;SDS011;19119;52.474;13.710;2023-06-26T04:58:18;15.45;;;12.35;;
32748;SDS011;19119;52.474;13.710;2023-06-26T05:00:43;16.77;;;12.07;;
32748;SDS011;19119;52.474;13.710;2023-06-26T05:03:09;15.57;;;12.35;;
32748;SDS011;19119;52.474;13.710;2023-06-26T05:05:36;17.23;;;12.93;;
32748;SDS011;19119;52.474;13.710;2023-06-26T05:08:12;16.67;;;11.70;;
32748;SDS011;19119;52.474;13.710;2023-06-26T05:10:56;14.68;;;11.82;;
32748;SDS011;19119;52.474;13.710;2023-06-26T05:13:25;16.20;;;12.57;;
32748;SDS011;19119;52.474;13.710;2023-06-26T05:15:51;16.73;;;12.18;;
32748;SDS011;19119;52.474;13.710;2023-06-26T05:18:17;13.82;;;12.25;;
32748;SDS011;19119;52.474;13.710;2023-06-26T05:20:43;18.17;;;12.68;;
32748;SDS011;19119;52.474;13.710;2023-06-26T05:23:10;15.70;;;13.15;;
32748;SDS011;19119;52.474;13.710;2023-06-26T05:25:37;13.95;;;11.50;;
32748;SDS011;19119;52.474;13.710;2023-06-26T05:28:03;15.85;;;11.75;;
32748;SDS011;19119;52.474;13.710;2023-06-26T05:30:35;13.82;;;11.02;;
32748;SDS011;19119;52.474;13.710;2023-06-26T05:33:01;16.70;;;11.70;;
32748;SDS011;19119;52.474;13.710;2023-06-26T05:35:28;14.68;;;12.45;;
32748;SDS011;19119;52.474;13.710;2023-06-26T05:37:57;14.25;;;11.98;;
32748;SDS011;19119;52.474;13.710;2023-06-26T05:40:23;15.13;;;11.30;;
32748;SDS011;19119;52.474;13.710;2023-06-26T05:42:49;16.80;;;11.02;;
32748;SDS011;19119;52.474;13.710;2023-06-26T05:45:15;14.50;;;11.73;;
32748;SDS011;19119;52.474;13.710;2023-06-26T05:47:41;15.07;;;11.02;;
32748;SDS011;19119;52.474;13.710;2023-06-26T05:50:08;18.80;;;12.05;;
32748;SDS011;19119;52.474;13.710;2023-06-26T05:52:34;16.08;;;11.57;;
32748;SDS011;19119;52.474;13.710;2023-06-26T05:55:00;15.75;;;11.02;;
32748;SDS011;19119;52.474;13.710;2023-06-26T05:57:27;14.60;;;11.30;;
32748;SDS011;19119;52.474;13.710;2023-06-26T05:59:54;12.20;;;10.10;;
32748;SDS011;19119;52.474;13.710;2023-06-26T06:02:20;11.23;;;9.45;;
32748;SDS011;19119;52.474;13.710;2023-06-26T06:04:46;10.52;;;9.45;;
32748;SDS011;19119;52.474;13.710;2023-06-26T06:07:11;12.30;;;9.25;;
32748;SDS011;19119;52.474;13.710;2023-06-26T06:09:37;11.70;;;9.32;;
32748;SDS011;19119;52.474;13.710;2023-06-26T06:12:04;12.38;;;9.10;;
32748;SDS011;19119;52.474;13.710;2023-06-26T06:14:30;11.88;;;9.20;;
32748;SDS011;19119;52.474;13.710;2023-06-26T06:16:56;10.80;;;8.68;;
32748;SDS011;19119;52.474;13.710;2023-06-26T06:19:22;9.90;;;7.93;;
32748;SDS011;19119;52.474;13.710;2023-06-26T06:21:48;9.93;;;8.13;;
32748;SDS011;19119;52.474;13.710;2023-06-26T06:24:13;13.00;;;8.82;;
32748;SDS011;19119;52.474;13.710;2023-06-26T06:26:38;11.77;;;8.85;;
32748;SDS011;19119;52.474;13.710;2023-06-26T06:29:04;9.65;;;8.25;;
32748;SDS011;19119;52.474;13.710;2023-06-26T06:31:29;9.90;;;7.22;;
32748;SDS011;19119;52.474;13.710;2023-06-26T06:33:55;11.82;;;8.30;;
32748;SDS011;19119;52.474;13.710;2023-06-26T06:36:20;10.48;;;7.75;;
32748;SDS011;19119;52.474;13.710;2023-06-26T06:38:46;9.88;;;7.40;;
32748;SDS011;19119;52.474;13.710;2023-06-26T06:41:11;8.48;;;7.57;;
32748;SDS011;19119;52.474;13.710;2023-06-26T06:43:37;8.32;;;6.97;;
32748;SDS011;19119;52.474;13.710;2023-06-26T06:46:03;8.63;;;7.00;;
32748;SDS011;19119;52.474;13.710;2023-06-26T06:48:30;8.82;;;6.93;;
32748;SDS011;19119;52.474;13.710;2023-06-26T06:50:56;8.35;;;6.50;;
32748;SDS011;19119;52.474;13.710;2023-06-26T06:53:22;8.93;;;6.75;;
32748;SDS011;19119;52.474;13.710;2023-06-26T06:55:48;9.30;;;6.80;;
32748;SDS011;19119;52.474;13.710;2023-06-26T06:58:16;10.10;;;7.78;;
32748;SDS011;19119;52.474;13.710;2023-06-26T07:00:44;8.10;;;6.50;;
32748;SDS011;19119;52.474;13.710;2023-06-26T07:03:09;8.85;;;7.07;;
32748;SDS011;19119;52.474;13.710;2023-06-26T07:05:35;10.25;;;6.82;;
32748;SDS011;19119;52.474;13.710;2023-06-26T07:08:01;8.55;;;6.72;;
32748;SDS011;19119;52.474;13.710;2023-06-26T07:10:26;7.28;;;6.57;;
32748;SDS011;19119;52.474;13.710;2023-06-26T07:12:52;9.23;;;7.13;;
32748;SDS011;19119;52.474;13.710;2023-06-26T07:15:17;8.48;;;6.95;;
32748;SDS011;19119;52.474;13.710;2023-06-26T07:17:43;9.13;;;7.35;;
32748;SDS011;19119;52.474;13.710;2023-06-26T07:20:09;8.02;;;7.15;;
32748;SDS011;19119;52.474;13.710;2023-06-26T07:22:40;8.95;;;6.68;;
32748;SDS011;19119;52.474;13.710;2023-06-26T07:25:05;8.13;;;6.88;;
32748;SDS011;19119;52.474;13.710;2023-06-26T07:27:34;8.40;;;5.95;;
32748;SDS011;19119;52.474;13.710;2023-06-26T07:30:01;7.75;;;5.93;;
32748;SDS011;19119;52.474;13.710;2023-06-26T07:32:26;18.02;;;6.60;;
32748;SDS011;19119;52.474;13.710;2023-06-26T07:34:52;7.32;;;5.65;;
32748;SDS011;19119;52.474;13.710;2023-06-26T07:37:17;6.88;;;5.82;;
32748;SDS011;19119;52.474;13.710;2023-06-26T07:39:43;7.13;;;5.38;;
32748;SDS011;19119;52.474;13.710;2023-06-26T07:42:08;8.27;;;5.25;;
32748;SDS011;19119;52.474;13.710;2023-06-26T07:44:34;7.13;;;5.80;;
32748;SDS011;19119;52.474;13.710;2023-06-26T07:46:59;6.57;;;5.13;;
32748;SDS011;19119;52.474;13.710;2023-06-26T07:49:25;6.85;;;5.50;;
32748;SDS011;19119;52.474;13.710;2023-06-26T07:51:50;5.35;;;4.80;;
32748;SDS011;19119;52.474;13.710;2023-06-26T07:54:16;5.68;;;4.88;;
32748;SDS011;19119;52.474;13.710;2023-06-26T07:59:23;5.72;;;4.63;;
32748;SDS011;19119;52.474;13.710;2023-06-26T08:01:50;6.97;;;4.30;;
32748;SDS011;19119;52.474;13.710;2023-06-26T08:04:20;6.43;;;5.10;;
32748;SDS011;19119;52.474;13.710;2023-06-26T08:06:50;8.30;;;4.72;;
32748;SDS011;19119;52.474;13.710;2023-06-26T08:09:18;6.07;;;4.78;;
32748;SDS011;19119;52.474;13.710;2023-06-26T08:11:46;6.93;;;4.57;;
32748;SDS011;19119;52.474;13.710;2023-06-26T08:14:12;5.72;;;4.70;;
32748;SDS011;19119;52.474;13.710;2023-06-26T08:16:38;5.97;;;4.70;;
32748;SDS011;19119;52.474;13.710;2023-06-26T08:19:04;6.40;;;4.60;;
32748;SDS011;19119;52.474;13.710;2023-06-26T08:21:29;5.97;;;4.90;;
32748;SDS011;19119;52.474;13.710;2023-06-26T08:23:55;7.18;;;4.72;;
32748;SDS011;19119;52.474;13.710;2023-06-26T08:26:20;5.85;;;4.75;;
32748;SDS011;19119;52.474;13.710;2023-06-26T08:28:46;10.38;;;4.88;;
32748;SDS011;19119;52.474;13.710;2023-06-26T08:31:12;7.93;;;4.35;;
32748;SDS011;19119;52.474;13.710;2023-06-26T08:33:37;5.25;;;4.28;;
32748;SDS011;19119;52.474;13.710;2023-06-26T08:36:03;6.03;;;4.68;;
32748;SDS011;19119;52.474;13.710;2023-06-26T08:38:28;5.82;;;4.90;;
32748;SDS011;19119;52.474;13.710;2023-06-26T08:40:54;5.65;;;4.57;;
32748;SDS011;19119;52.474;13.710;2023-06-26T08:43:19;5.95;;;4.50;;
32748;SDS011;19119;52.474;13.710;2023-06-26T08:45:46;8.23;;;4.72;;
32748;SDS011;19119;52.474;13.710;2023-06-26T08:48:16;5.75;;;4.63;;
32748;SDS011;19119;52.474;13.710;2023-06-26T08:50:42;6.53;;;5.07;;
32748;SDS011;19119;52.474;13.710;2023-06-26T08:53:09;5.55;;;4.53;;
32748;SDS011;19119;52.474;13.710;2023-06-26T08:55:45;5.43;;;4.40;;
32748;SDS011;19119;52.474;13.710;2023-06-26T08:58:13;6.57;;;5.00;;
32748;SDS011;19119;52.474;13.710;2023-06-26T09:00:40;5.55;;;4.60;;
32748;SDS011;19119;52.474;13.710;2023-06-26T09:03:05;6.05;;;4.40;;
32748;SDS011;19119;52.474;13.710;2023-06-26T09:05:32;5.13;;;4.00;;
32748;SDS011;19119;52.474;13.710;2023-06-26T09:07:58;4.75;;;3.97;;
32748;SDS011;19119;52.474;13.710;2023-06-26T09:10:23;5.63;;;4.10;;
32748;SDS011;19119;52.474;13.710;2023-06-26T09:12:50;5.95;;;4.07;;
32748;SDS011;19119;52.474;13.710;2023-06-26T09:15:20;4.93;;;4.00;;
32748;SDS011;19119;52.474;13.710;2023-06-26T09:17:47;6.18;;;4.60;;
32748;SDS011;19119;52.474;13.710;2023-06-26T09:20:13;4.97;;;3.75;;
32748;SDS011;19119;52.474;13.710;2023-06-26T09:22:40;5.20;;;4.15;;
32748;SDS011;19119;52.474;13.710;2023-06-26T09:25:07;5.95;;;3.90;;
32748;SDS011;19119;52.474;13.710;2023-06-26T09:27:34;5.65;;;4.30;;
32748;SDS011;19119;52.474;13.710;2023-06-26T09:30:01;4.78;;;4.18;;
32748;SDS011;19119;52.474;13.710;2023-06-26T09:32:28;6.32;;;4.18;;
32748;SDS011;19119;52.474;13.710;2023-06-26T09:34:54;7.32;;;4.25;;
32748;SDS011;19119;52.474;13.710;2023-06-26T09:37:23;8.13;;;4.38;;
32748;SDS011;19119;52.474;13.710;2023-06-26T09:39:50;4.30;;;3.65;;
32748;SDS011;19119;52.474;13.710;2023-06-26T09:42:16;5.72;;;4.45;;
32748;SDS011;19119;52.474;13.710;2023-06-26T09:44:44;5.30;;;4.00;;
32748;SDS011;19119;52.474;13.710;2023-06-26T09:47:11;5.35;;;3.78;;
32748;SDS011;19119;52.474;13.710;2023-06-26T09:49:36;5.03;;;3.92;;
32748;SDS011;19119;52.474;13.710;2023-06-26T09:52:06;4.80;;;3.78;;
32748;SDS011;19119;52.474;13.710;2023-06-26T09:54:32;5.80;;;3.30;;
32748;SDS011;19119;52.474;13.710;2023-06-26T09:57:07;4.93;;;3.85;;
32748;SDS011;19119;52.474;13.710;2023-06-26T09:59:34;7.10;;;3.55;;
32748;SDS011;19119;52.474;13.710;2023-06-26T10:02:00;8.77;;;3.95;;
32748;SDS011;19119;52.474;13.710;2023-06-26T10:04:26;4.30;;;3.40;;
32748;SDS011;19119;52.474;13.710;2023-06-26T10:06:51;24.00;;;5.05;;
32748;SDS011;19119;52.474;13.710;2023-06-26T10:09:20;12.57;;;3.55;;
32748;SDS011;19119;52.474;13.710;2023-06-26T10:12:03;13.88;;;4.03;;
32748;SDS011;19119;52.474;13.710;2023-06-26T10:14:36;4.00;;;3.25;;
32748;SDS011;19119;52.474;13.710;2023-06-26T10:17:06;4.75;;;2.85;;
32748;SDS011;19119;52.474;13.710;2023-06-26T10:19:34;4.38;;;3.03;;
32748;SDS011;19119;52.474;13.710;2023-06-26T10:22:02;5.70;;;2.83;;
32748;SDS011;19119;52.474;13.710;2023-06-26T10:24:29;4.32;;;3.05;;
32748;SDS011;19119;52.474;13.710;2023-06-26T10:27:07;5.18;;;2.85;;
32748;SDS011;19119;52.474;13.710;2023-06-26T10:29:38;3.90;;;2.70;;
32748;SDS011;19119;52.474;13.710;2023-06-26T10:32:04;4.65;;;3.50;;
32748;SDS011;19119;52.474;13.710;2023-06-26T10:34:31;4.13;;;3.15;;
32748;SDS011;19119;52.474;13.710;2023-06-26T10:37:01;4.57;;;3.30;;
32748;SDS011;19119;52.474;13.710;2023-06-26T10:42:14;5.35;;;2.70;;
32748;SDS011;19119;52.474;13.710;2023-06-26T10:44:44;5.18;;;3.53;;
32748;SDS011;19119;52.474;13.710;2023-06-26T10:47:11;6.25;;;3.33;;
32748;SDS011;19119;52.474;13.710;2023-06-26T10:49:53;5.85;;;3.03;;
32748;SDS011;19119;52.474;13.710;2023-06-26T10:52:18;5.22;;;3.20;;
32748;SDS011;19119;52.474;13.710;2023-06-26T10:54:44;4.97;;;3.72;;
32748;SDS011;19119;52.474;13.710;2023-06-26T10:57:09;4.97;;;3.20;;
32748;SDS011;19119;52.474;13.710;2023-06-26T10:59:38;4.55;;;3.67;;
32748;SDS011;19119;52.474;13.710;2023-06-26T11:02:04;5.57;;;3.58;;
32748;SDS011;19119;52.474;13.710;2023-06-26T11:07:21;5.63;;;3.55;;
32748;SDS011;19119;52.474;13.710;2023-06-26T11:09:55;5.77;;;3.50;;
32748;SDS011;19119;52.474;13.710;2023-06-26T11:12:38;6.25;;;3.78;;
32748;SDS011;19119;52.474;13.710;2023-06-26T11:17:34;5.20;;;4.07;;
32748;SDS011;19119;52.474;13.710;2023-06-26T11:20:00;6.30;;;3.50;;
32748;SDS011;19119;52.474;13.710;2023-06-26T11:22:26;4.75;;;4.03;;
32748;SDS011;19119;52.474;13.710;2023-06-26T11:24:53;4.50;;;3.47;;
32748;SDS011;19119;52.474;13.710;2023-06-26T11:27:19;6.82;;;4.05;;
32748;SDS011;19119;52.474;13.710;2023-06-26T11:29:48;5.57;;;3.63;;
32748;SDS011;19119;52.474;13.710;2023-06-26T11:32:14;6.85;;;3.55;;
32748;SDS011;19119;52.474;13.710;2023-06-26T11:34:40;6.07;;;4.00;;
32748;SDS011;19119;52.474;13.710;2023-06-26T11:37:07;4.22;;;3.60;;
32748;SDS011;19119;52.474;13.710;2023-06-26T11:39:33;4.40;;;3.47;;
32748;SDS011;19119;52.474;13.710;2023-06-26T11:41:59;5.15;;;3.83;;
32748;SDS011;19119;52.474;13.710;2023-06-26T11:44:28;55.28;;;5.57;;
32748;SDS011;19119;52.474;13.710;2023-06-26T11:46:55;4.75;;;3.70;;
32748;SDS011;19119;52.474;13.710;2023-06-26T11:49:21;5.05;;;3.42;;
32748;SDS011;19119;52.474;13.710;2023-06-26T11:51:48;4.78;;;3.67;;
32748;SDS011;19119;52.474;13.710;2023-06-26T11:54:14;5.65;;;3.80;;
32748;SDS011;19119;52.474;13.710;2023-06-26T11:56:40;5.22;;;3.92;;
32748;SDS011;19119;52.474;13.710;2023-06-26T11:59:06;3.90;;;3.30;;
32748;SDS011;19119;52.474;13.710;2023-06-26T12:01:34;4.60;;;3.17;;
32748;SDS011;19119;52.474;13.710;2023-06-26T12:04:04;6.40;;;3.37;;
32748;SDS011;19119;52.474;13.710;2023-06-26T12:06:36;4.32;;;3.42;;
32748;SDS011;19119;52.474;13.710;2023-06-26T12:09:05;4.63;;;3.30;;
32748;SDS011;19119;52.474;13.710;2023-06-26T12:11:34;5.28;;;3.70;;
32748;SDS011;19119;52.474;13.710;2023-06-26T12:14:00;5.22;;;3.50;;
32748;SDS011;19119;52.474;13.710;2023-06-26T12:16:29;3.80;;;3.40;;
32748;SDS011;19119;52.474;13.710;2023-06-26T12:19:05;4.10;;;3.25;;
32748;SDS011;19119;52.474;13.710;2023-06-26T12:24:05;7.60;;;3.55;;
32748;SDS011;19119;52.474;13.710;2023-06-26T12:26:33;5.13;;;3.72;;
32748;SDS011;19119;52.474;13.710;2023-06-26T12:29:17;4.30;;;3.20;;
32748;SDS011;19119;52.474;13.710;2023-06-26T12:31:44;6.32;;;3.90;;
32748;SDS011;19119;52.474;13.710;2023-06-26T12:34:11;5.20;;;4.00;;
32748;SDS011;19119;52.474;13.710;2023-06-26T12:36:40;6.43;;;3.88;;
32748;SDS011;19119;52.474;13.710;2023-06-26T12:39:09;4.43;;;3.83;;
32748;SDS011;19119;52.474;13.710;2023-06-26T12:41:36;4.32;;;3.70;;
32748;SDS011;19119;52.474;13.710;2023-06-26T12:44:23;5.25;;;3.83;;
32748;SDS011;19119;52.474;13.710;2023-06-26T12:46:53;4.57;;;4.00;;
32748;SDS011;19119;52.474;13.710;2023-06-26T12:49:28;7.88;;;3.55;;
32748;SDS011;19119;52.474;13.710;2023-06-26T12:51:55;5.68;;;3.60;;
32748;SDS011;19119;52.474;13.710;2023-06-26T12:54:20;4.85;;;3.92;;
32748;SDS011;19119;52.474;13.710;2023-06-26T12:56:46;5.18;;;3.80;;
32748;SDS011;19119;52.474;13.710;2023-06-26T12:59:11;4.30;;;3.58;;
32748;SDS011;19119;52.474;13.710;2023-06-26T13:01:36;6.65;;;3.75;;
32748;SDS011;19119;52.474;13.710;2023-06-26T13:04:02;5.22;;;4.03;;
32748;SDS011;19119;52.474;13.710;2023-06-26T13:06:28;6.40;;;3.67;;
32748;SDS011;19119;52.474;13.710;2023-06-26T13:08:54;6.40;;;3.88;;
32748;SDS011;19119;52.474;13.710;2023-06-26T13:11:19;5.30;;;3.80;;
32748;SDS011;19119;52.474;13.710;2023-06-26T13:13:46;7.90;;;4.43;;
32748;SDS011;19119;52.474;13.710;2023-06-26T13:16:11;5.13;;;3.67;;
32748;SDS011;19119;52.474;13.710;2023-06-26T13:18:37;5.40;;;3.90;;
32748;SDS011;19119;52.474;13.710;2023-06-26T13:21:03;8.63;;;4.50;;
32748;SDS011;19119;52.474;13.710;2023-06-26T13:23:28;4.47;;;3.85;;
32748;SDS011;19119;52.474;13.710;2023-06-26T13:25:54;4.97;;;4.05;;
32748;SDS011;19119;52.474;13.710;2023-06-26T13:28:19;7.38;;;4.43;;
32748;SDS011;19119;52.474;13.710;2023-06-26T13:30:44;5.45;;;4.07;;
32748;SDS011;19119;52.474;13.710;2023-06-26T13:33:10;6.68;;;3.65;;
32748;SDS011;19119;52.474;13.710;2023-06-26T13:35:36;5.43;;;4.25;;
32748;SDS011;19119;52.474;13.710;2023-06-26T13:38:01;5.25;;;4.28;;
32748;SDS011;19119;52.474;13.710;2023-06-26T13:40:27;5.38;;;4.65;;
32748;SDS011;19119;52.474;13.710;2023-06-26T13:42:52;5.75;;;3.97;;
32748;SDS011;19119;52.474;13.710;2023-06-26T13:45:17;8.15;;;4.53;;
32748;SDS011;19119;52.474;13.710;2023-06-26T13:47:43;6.38;;;4.65;;
32748;SDS011;19119;52.474;13.710;2023-06-26T13:50:09;5.20;;;4.38;;
32748;SDS011;19119;52.474;13.710;2023-06-26T13:52:35;7.40;;;4.57;;
32748;SDS011;19119;52.474;13.710;2023-06-26T13:55:01;8.27;;;4.35;;
32748;SDS011;19119;52.474;13.710;2023-06-26T13:57:30;41.00;;;6.97;;
32748;SDS011;19119;52.474;13.710;2023-06-26T13:59:56;6.22;;;4.57;;
32748;SDS011;19119;52.474;13.710;2023-06-26T14:02:21;6.10;;;4.30;;
32748;SDS011;19119;52.474;13.710;2023-06-26T14:04:47;5.80;;;4.50;;
32748;SDS011;19119;52.474;13.710;2023-06-26T14:07:12;6.07;;;4.53;;
32748;SDS011;19119;52.474;13.710;2023-06-26T14:09:39;5.30;;;4.78;;
32748;SDS011;19119;52.474;13.710;2023-06-26T14:12:05;11.48;;;4.13;;
32748;SDS011;19119;52.474;13.710;2023-06-26T14:14:31;7.40;;;4.90;;
32748;SDS011;19119;52.474;13.710;2023-06-26T14:16:57;5.43;;;4.70;;
32748;SDS011;19119;52.474;13.710;2023-06-26T14:19:24;6.32;;;5.22;;
32748;SDS011;19119;52.474;13.710;2023-06-26T14:21:50;6.93;;;4.68;;
32748;SDS011;19119;52.474;13.710;2023-06-26T14:24:16;4.97;;;4.40;;
32748;SDS011;19119;52.474;13.710;2023-06-26T14:26:41;5.82;;;4.90;;
32748;SDS011;19119;52.474;13.710;2023-06-26T14:29:07;6.65;;;4.95;;
32748;SDS011;19119;52.474;13.710;2023-06-26T14:31:32;8.52;;;4.82;;
32748;SDS011;19119;52.474;13.710;2023-06-26T14:33:59;9.27;;;4.80;;
32748;SDS011;19119;52.474;13.710;2023-06-26T14:36:25;7.45;;;5.30;;
32748;SDS011;19119;52.474;13.710;2023-06-26T14:38:51;7.45;;;4.65;;
32748;SDS011;19119;52.474;13.710;2023-06-26T14:41:17;5.93;;;4.63;;
32748;SDS011;19119;52.474;13.710;2023-06-26T14:43:42;6.32;;;4.90;;
32748;SDS011;19119;52.474;13.710;2023-06-26T14:46:08;17.55;;;4.50;;